Flight Track Log - Related Links

Times and Time Zones

All times are in EDT time to prevent confusion due to time zone crossing. See the TRS297 flight status page for this flight to view local times or setup timezone preferences in your user account.

Time Position Orientation Groundspeed Altitude Reporting Facility
EDT Latitude Longitude Course Direction KTS MPH feet Rate Location/Type
Thu 07:39:58 PM 26.0750 -80.1319 83° East 200 230 900  Level Miami Center
Thu 07:41:36 PM 26.0856 -80.0306 83° East 250 288 3,500 1,849 Climbing Miami Center
Thu 07:42:37 PM 26.1164 -79.9575 65° Northeast 259 298 5,800 1,948 Climbing Miami Center
Thu 07:44:10 PM 26.1731 -79.8431 61° Northeast 282 325 8,500 1,725 Climbing Miami Center
Thu 07:45:10 PM 26.2125 -79.7583 63° Northeast 294 338 10,200 1,350 Climbing Miami Center
Thu 07:46:10 PM 26.2581 -79.6644 62° Northeast 312 359 11,200 1,200 Climbing Miami Center
Thu 07:47:10 PM 26.3286 -79.5828 46° Northeast 348 400 12,600 1,650 Climbing Miami Center
Thu 07:48:10 PM 26.4322 -79.5225 28° Northeast 361 415 14,500 1,700 Climbing Miami Center
Thu 07:49:10 PM 26.5186 -79.4733 27° Northeast 378 435 16,000 1,550 Climbing Miami Center
Thu 07:50:10 PM 26.6264 -79.4106 28° Northeast 383 441 17,600 1,350 Climbing Miami Center
Thu 07:51:10 PM 26.7169 -79.3544 29° Northeast 398 458 18,700 1,350 Climbing Miami Center
Thu 07:52:10 PM 26.8244 -79.2964 26° Northeast 419 482 20,300 1,500 Climbing Miami Center
Thu 07:53:10 PM 26.9319 -79.2356 27° Northeast 419 482 21,700 1,300 Climbing Miami Center
Thu 07:54:10 PM 27.0397 -79.1703 28° Northeast 424 488 22,900 1,300 Climbing Miami Center
Thu 07:55:10 PM 27.1639 -79.0978 27° Northeast 442 509 24,300 1,250 Climbing Miami Center
Thu 07:56:10 PM 27.2819 -79.0394 24° Northeast 454 522 25,400 1,150 Climbing Miami Center
Thu 07:57:10 PM 27.3992 -79.0206 North 455 524 26,600 1,100 Climbing Miami Center
Thu 07:58:10 PM 27.5414 -78.9975 North 463 533 27,600 1,150 Climbing Miami Center
Thu 07:59:10 PM 27.6692 -78.9786 North 469 540 28,900 1,450 Climbing Miami Center
Thu 08:00:10 PM 27.7989 -78.9600 North 463 533 30,500 1,400 Climbing Miami Center
Thu 08:01:10 PM 27.9181 -78.9411 North 458 527 31,700 1,150 Climbing Miami Center
Thu 08:02:10 PM 28.0458 -78.9222 North 447 514 32,800 650 Climbing Miami Center
Thu 08:03:10 PM 28.1714 -78.9011 North 447 514 33,000 100 Climbing Miami Center
Thu 08:04:10 PM 28.2967 -78.8844 North 452 520 33,000  Level Miami Center
Thu 08:05:10 PM 28.4244 -78.8653 North 452 520 33,000  Level Miami Center
Thu 08:06:10 PM 28.5500 -78.8417 North 452 520 33,000  Level Miami Center
Thu 08:07:10 PM 28.6753 -78.8250 North 447 514 33,000  Level Miami Center
Thu 08:08:10 PM 28.8008 -78.8036 North 447 514 33,000  Level Miami Center
Thu 08:09:10 PM 28.9181 -78.7867 North 459 528 33,000  Level Miami Center
Thu 08:10:10 PM 29.0433 -78.7650 North 459 528 33,000  Level Miami Center
Thu 08:11:10 PM 29.1669 -78.7433 North 459 528 33,000  Level Miami Center
Thu 08:12:10 PM 29.3006 -78.7289 North 459 528 33,000  Level Miami Center
Thu 08:13:10 PM 29.4281 -78.7097 North 459 528 33,000  Level Miami Center
Thu 08:14:10 PM 29.5514 -78.6903 North 459 528 33,000  Level Miami Center
Thu 08:15:10 PM 29.6767 -78.6661 10° North 459 528 33,000  Level Miami Center
Thu 08:16:10 PM 29.8083 -78.6492 North 464 534 33,000  Level Miami Center
Thu 08:17:10 PM 29.9378 -78.6297 North 467 537 33,000  Level Miami Center
Thu 08:17:28 PM 29.9883 -78.6194 10° North 467 537 33,000  Level Jacksonville Center
Thu 08:18:28 PM 30.1125 -78.5925 11° North 465 535 33,000  Level Jacksonville Center
Thu 08:19:28 PM 30.2433 -78.5722 North 465 535 33,000  Level Jacksonville Center
Thu 08:20:28 PM 30.3700 -78.5519 North 467 537 33,000  Level Jacksonville Center
Thu 08:21:28 PM 30.4986 -78.5292 North 464 534 33,000  Level Jacksonville Center
Thu 08:22:28 PM 30.6253 -78.5114 North 457 526 33,000  Level Jacksonville Center
Thu 08:23:28 PM 30.7539 -78.4886 North 475 547 33,000  Level Jacksonville Center
Thu 08:24:28 PM 30.8828 -78.4681 North 467 537 33,000  Level Jacksonville Center
Thu 08:25:28 PM 31.0156 -78.4472 North 463 533 33,000  Level Jacksonville Center
Thu 08:26:28 PM 31.1297 -78.4272 North 466 536 33,000  Level Jacksonville Center
Thu 08:27:28 PM 31.2586 -78.4089 North 458 527 33,000  Level Jacksonville Center
Thu 08:28:28 PM 31.3869 -78.3833 10° North 463 533 33,000  Level Jacksonville Center
Thu 08:29:28 PM 31.5158 -78.3650 North 463 533 33,000  Level Jacksonville Center
Thu 08:30:28 PM 31.6444 -78.3417 North 463 533 33,000  Level Jacksonville Center
Thu 08:31:28 PM 31.7731 -78.3206 North 463 533 33,000  Level Jacksonville Center
Thu 08:32:28 PM 31.9058 -78.2969 North 463 533 33,000  Level Jacksonville Center
Thu 08:33:28 PM 32.0406 -78.2731 North 469 540 33,000  Level Jacksonville Center
Thu 08:34:28 PM 32.1672 -78.2544 North 469 540 33,000  Level Jacksonville Center
Thu 08:35:28 PM 32.2936 -78.2333 North 469 540 33,000  Level Jacksonville Center
Thu 08:36:28 PM 32.4242 -78.2019 11° North 469 540 33,000  Level Jacksonville Center
Thu 08:37:28 PM 32.5550 -78.1853 North 469 540 33,000  Level Jacksonville Center
Thu 08:38:28 PM 32.6856 -78.1636 North 464 534 33,000  Level Jacksonville Center
Thu 08:39:28 PM 32.8139 -78.1372 10° North 464 534 33,000  Level Jacksonville Center
Thu 08:40:28 PM 32.9447 -78.1178 North 464 534 33,000  Level Jacksonville Center
Thu 08:41:28 PM 33.0753 -78.0936 North 464 534 33,000  Level Jacksonville Center
Thu 08:42:28 PM 33.2039 -78.0719 North 464 534 33,000  Level Jacksonville Center
Thu 08:44:39 PM 33.4858 -78.0267 North 484 557 33,000  Level Washington Center
Thu 08:45:40 PM 33.6136 -78.0031 North 479 551 33,000  Level Washington Center
Thu 08:46:41 PM 33.7433 -77.9817 North 469 540 33,000  Level Washington Center
Thu 08:47:39 PM 33.8689 -77.9603 North 463 533 33,000  Level Washington Center
Thu 08:48:39 PM 34.0028 -77.9342 North 475 547 33,000  Level Washington Center
Thu 08:49:41 PM 34.1306 -77.9178 North 475 547 33,000  Level Washington Center
Thu 08:50:38 PM 34.2583 -77.8911 10° North 468 539 33,000  Level Washington Center
Thu 08:51:39 PM 34.4047 -77.8725 North 473 544 33,000  Level Washington Center
Thu 08:52:40 PM 34.5342 -77.8586 North 467 537 33,000  Level Washington Center
Thu 08:53:40 PM 34.6617 -77.8469 North 462 532 33,000  Level Washington Center
Thu 08:54:38 PM 34.7914 -77.8328 North 462 532 33,000  Level Washington Center
Thu 08:55:39 PM 34.9064 -77.8156 North 456 525 33,000  Level Washington Center
Thu 08:56:40 PM 35.0381 -77.8042 North 462 532 33,000  Level Washington Center
Thu 08:57:38 PM 35.1656 -77.7897 North 462 532 33,000  Level Washington Center
Thu 08:58:38 PM 35.2933 -77.7756 North 462 532 33,000  Level Washington Center
Thu 08:59:38 PM 35.4228 -77.7611 North 462 532 33,000  Level Washington Center
Thu 09:00:40 PM 35.5503 -77.7492 North 462 532 33,000  Level Washington Center
Thu 09:01:40 PM 35.6778 -77.7347 North 462 532 33,000  Level Washington Center
Thu 09:02:38 PM 35.8053 -77.7203 North 462 532 33,000 -508 Level Washington Center
Thu 09:03:38 PM 35.9311 -77.6956 North 462 532 32,000 -1,240 Descending Washington Center
Thu 09:04:39 PM 36.0567 -77.6656 11° North 457 526 30,500 -1,475 Descending Washington Center
Thu 09:05:40 PM 36.1992 -77.6331 10° North 465 535 29,000 -756 Descending Washington Center
Thu 09:06:38 PM 36.3228 -77.6028 11° North 465 535 29,000  Level Washington Center
Thu 09:07:39 PM 36.4442 -77.5750 10° North 459 528 29,000  Level Washington Center
Thu 09:08:39 PM 36.5678 -77.5469 10° North 452 520 29,000  Level Washington Center
Thu 09:09:38 PM 36.6936 -77.5167 11° North 452 520 29,000  Level Washington Center
Thu 09:10:38 PM 36.8150 -77.4858 11° North 447 514 29,000 -298 Level Washington Center
Thu 09:11:39 PM 36.9344 -77.4575 11° North 447 514 28,400 -496 Descending Washington Center
Thu 09:12:39 PM 37.0578 -77.4294 10° North 447 514 28,000 -197 Descending Washington Center
Thu 09:13:41 PM 37.1794 -77.4008 11° North 447 514 28,000 -300 Level Washington Center
Thu 09:14:39 PM 37.3008 -77.3700 11° North 447 514 27,400 -1,563 Descending Washington Center
Thu 09:15:40 PM 37.4200 -77.3411 11° North 442 509 24,900 -2,182 Descending Washington Center
Thu 09:16:40 PM 37.5353 -77.3125 11° North 429 494 23,000 -950 Descending Washington Center
Thu 09:17:40 PM 37.6439 -77.2914 North 408 470 23,000  Level Washington Center
Thu 09:18:41 PM 37.7547 -77.2675 10° North 408 470 23,000  Level Washington Center
Thu 09:19:38 PM 37.8678 -77.2436 North 408 470 23,000  Level Washington Center
Thu 09:20:39 PM 37.9808 -77.2225 North 408 470 23,000 -694 Level Washington Center
Thu 09:21:39 PM 38.0811 -77.2036 North 408 470 21,600 -1,884 Descending Washington Center
Thu 09:22:40 PM 38.1878 -77.1819 North 408 470 19,200 -2,420 Descending Washington Center
Thu 09:23:38 PM 38.3028 -77.1528 11° North 389 448 16,800 -2,237 Descending Washington Center
Thu 09:24:38 PM 38.3867 -77.1228 16° North 363 418 14,800 -1,686 Descending Washington Center
Thu 09:25:39 PM 38.4586 -77.0208 48° Northeast 353 406 13,400 -1,317 Descending Washington Center
Thu 09:26:41 PM 38.5267 -76.9214 49° Northeast 353 406 12,100 -1,311 Descending Washington Center
Thu 09:27:38 PM 38.5881 -76.8319 49° Northeast 353 406 10,800 -1,271 Descending Washington Center
Thu 09:28:39 PM 38.6431 -76.7478 50° Northeast 326 375 9,600 -1,289 Descending Washington Center
Thu 09:29:39 PM 38.7000 -76.6689 47° Northeast 319 367 8,200 -1,456 Descending Washington Center
Thu 09:30:22 PM 38.7500 -76.6000 47° Northeast 296 341 7,100 -1,340 Descending Potomac TRACON
Thu 09:31:22 PM 38.8000 -76.5333 46° Northeast 286 329 5,900 -1,095 Descending Potomac TRACON
Thu 09:32:28 PM 38.8833 -76.5500 351° North 259 298 4,800 -1,134 Descending Potomac TRACON
Thu 09:33:29 PM 38.9500 -76.5667 349° North 251 289 3,500 -1,252 Descending Potomac TRACON
Thu 09:34:23 PM 39.0167 -76.5833 349° North 250 288 2,400 -1,043 Descending Potomac TRACON
Thu 09:35:24 PM 39.0833 -76.6000 349° North 231 266 1,500 -595 Descending Potomac TRACON
Thu 09:36:24 PM 39.1167 -76.6167 339° North 140 161 1,200 -450 Descending Potomac TRACON
Thu 09:37:24 PM 39.1500 -76.6500 322° Northwest 125 144 600 -600 Descending Potomac TRACON
Thu 09:39:00 PM 39.1667 -76.6667 339° North  Level FlightAware Approximate
Thu 09:46:00 PM 39.1754 -76.6683 339° North  Level Estimated
Thu 09:47:00 PM 39.1754 -76.6683 339° North  Level Estimated
Thu 09:48:00 PM 39.1754 -76.6683 339° North  Level Estimated

Login

Don't have an account? Register now (free) for customized features, flight alerts, and more!